createdAt,value
2018-02-24T08:10:22.408Z,38.52
2018-02-24T08:10:23.987Z,38.52
2018-02-24T08:11:24.461Z,38.49
2018-02-24T08:12:24.932Z,38.48
2018-02-24T08:13:25.411Z,38.50
2018-02-24T08:14:25.887Z,38.54
2018-02-24T08:17:27.313Z,38.75
2018-02-24T08:18:27.789Z,38.87
2018-02-24T08:19:28.266Z,39.03
2018-02-24T08:20:28.791Z,39.20
2018-02-24T08:21:29.212Z,39.34
2018-02-24T08:22:29.692Z,39.54
2018-02-24T08:23:30.168Z,39.73
2018-02-24T08:25:31.168Z,40.05
2018-02-24T08:26:31.795Z,40.18
2018-02-24T08:27:32.069Z,40.37
2018-02-24T08:28:32.543Z,40.51
2018-02-24T08:29:33.034Z,40.67
2018-02-24T08:30:33.492Z,40.85
2018-02-24T08:32:34.437Z,41.18
2018-02-24T08:33:34.915Z,41.35
2018-02-24T08:34:35.392Z,41.53
2018-02-24T08:35:47.148Z,41.72
2018-02-24T08:36:36.336Z,41.96
2018-02-24T08:37:36.810Z,42.23
2018-02-24T08:38:37.281Z,42.49
2018-02-24T08:39:37.750Z,42.73
2018-02-24T08:41:38.701Z,43.11
2018-02-24T08:42:39.172Z,43.31
2018-02-24T08:43:39.640Z,43.48
2018-02-24T08:47:41.535Z,43.76
2018-02-24T08:48:42.006Z,43.71
2018-02-24T08:49:42.479Z,43.72
2018-02-24T08:50:42.950Z,43.74
2018-02-24T08:51:43.675Z,43.74
2018-02-24T08:52:43.899Z,43.66
2018-02-24T08:53:44.367Z,43.60
2018-02-24T08:54:44.836Z,43.57
2018-02-24T08:55:45.313Z,43.17
2018-02-24T08:56:45.785Z,42.98
2018-02-24T08:57:46.257Z,42.86
2018-02-24T08:58:46.733Z,42.88
2018-02-24T08:59:47.203Z,42.85
2018-02-24T09:00:47.679Z,42.81
2018-02-24T09:02:48.621Z,42.63
2018-02-24T09:03:49.098Z,42.60
2018-02-24T09:04:49.769Z,42.56
2018-02-24T09:05:50.043Z,42.49
2018-02-24T09:06:50.516Z,42.42
2018-02-24T09:07:50.991Z,42.35
2018-02-24T09:09:51.938Z,42.24
2018-02-24T09:10:52.412Z,42.15
2018-02-24T09:12:04.372Z,42.10
2018-02-24T09:13:53.837Z,41.84
2018-02-24T09:15:54.787Z,41.73
2018-02-24T09:16:55.313Z,41.71
2018-02-24T09:17:55.734Z,41.72
2018-02-24T09:18:56.211Z,41.64
2018-02-24T09:19:56.690Z,41.60
2018-02-24T09:20:57.158Z,41.56
2018-02-24T09:22:09.376Z,41.63
2018-02-24T09:23:58.593Z,41.45
2018-02-24T09:24:59.066Z,41.38
2018-02-24T09:25:59.542Z,41.35
2018-02-24T09:27:00.070Z,41.37
2018-02-24T09:29:00.972Z,41.49
2018-02-24T09:30:01.447Z,41.56
2018-02-24T09:31:01.923Z,41.72
2018-02-24T09:32:02.451Z,41.86
2018-02-24T09:33:02.877Z,41.99
2018-02-24T09:34:03.354Z,42.06
2018-02-24T09:35:03.830Z,42.22
2018-02-24T09:36:04.305Z,42.25
2018-02-24T09:37:04.777Z,42.51
2018-02-24T09:38:05.258Z,42.78
2018-02-24T09:39:05.734Z,42.92
2018-02-24T09:40:06.210Z,43.07
2018-02-24T09:41:06.688Z,43.23
2018-02-24T09:42:07.155Z,43.29
2018-02-24T09:43:07.636Z,43.42
2018-02-24T09:45:08.584Z,43.89
2018-02-24T09:46:09.061Z,43.99
2018-02-24T09:47:09.586Z,44.00
2018-02-24T09:48:10.006Z,44.11
2018-02-24T09:49:10.482Z,44.31
2018-02-24T09:50:10.958Z,44.58
2018-02-24T09:51:11.431Z,44.86
2018-02-24T09:52:11.954Z,45.14
2018-02-24T09:53:12.402Z,45.41
2018-02-24T09:54:12.848Z,45.70
2018-02-24T09:56:13.797Z,46.21
2018-02-24T09:58:14.750Z,46.71
2018-02-24T09:59:15.216Z,46.71
2018-02-24T10:00:15.690Z,46.87
2018-02-24T10:01:16.362Z,46.83
2018-02-24T10:03:17.106Z,46.84
2018-02-24T10:04:17.577Z,46.72
2018-02-24T10:05:18.047Z,46.62
2018-02-24T10:06:18.522Z,46.58
2018-02-24T10:07:19.044Z,46.49
2018-02-24T10:08:19.467Z,46.45
2018-02-24T10:09:19.941Z,46.47
2018-02-24T10:10:20.410Z,46.34
2018-02-24T10:11:20.912Z,46.28
2018-02-24T10:12:21.358Z,46.12
2018-02-24T10:13:21.830Z,45.93
2018-02-24T10:14:22.304Z,45.77
2018-02-24T10:15:22.775Z,45.61
2018-02-24T10:16:23.247Z,45.46
2018-02-24T10:17:23.926Z,45.17
2018-02-24T10:18:24.198Z,44.97
2018-02-24T10:19:24.674Z,44.61
2018-02-24T10:20:25.144Z,44.36
2018-02-24T10:21:25.619Z,44.21
2018-02-24T10:22:26.093Z,44.06
2018-02-24T10:23:26.561Z,43.91
2018-02-24T10:24:27.042Z,43.69
2018-02-24T10:25:27.516Z,43.57
2018-02-24T10:26:27.989Z,43.49
2018-02-24T10:27:28.460Z,43.48
2018-02-24T10:28:29.142Z,43.32
2018-02-24T10:29:29.417Z,43.21
2018-02-24T10:30:29.890Z,43.10
2018-02-24T10:31:30.365Z,42.99
2018-02-24T10:32:30.847Z,42.92
2018-02-24T10:33:31.319Z,42.78
2018-02-24T10:34:31.991Z,42.70
2018-02-24T10:36:32.747Z,42.46
2018-02-24T10:37:33.425Z,42.39
2018-02-24T10:38:33.694Z,42.37
2018-02-24T10:39:34.177Z,42.33
2018-02-24T10:41:35.129Z,42.40
2018-02-24T10:42:35.605Z,42.44
2018-02-24T10:43:36.082Z,42.50
2018-02-24T10:44:36.561Z,42.60
2018-02-24T10:45:37.031Z,42.69
2018-02-24T10:46:37.513Z,42.80
2018-02-24T10:47:37.989Z,42.92
2018-02-24T10:48:38.465Z,43.05
2018-02-24T10:49:38.936Z,43.22
2018-02-24T10:50:39.417Z,43.41
2018-02-24T10:51:39.894Z,43.52
2018-02-24T10:52:40.369Z,43.66
2018-02-24T10:53:40.845Z,43.86
2018-02-24T10:54:41.316Z,44.02
2018-02-24T10:55:41.795Z,44.11
2018-02-24T10:56:42.270Z,44.24
2018-02-24T10:57:42.952Z,44.38
2018-02-24T10:58:43.222Z,44.50
2018-02-24T10:59:43.695Z,44.59
2018-02-24T11:00:44.169Z,44.70
2018-02-24T11:01:44.645Z,44.88
2018-02-24T11:02:45.117Z,45.01
2018-02-24T11:03:45.591Z,45.12
2018-02-24T11:04:46.066Z,45.25
2018-02-24T11:05:46.810Z,45.38
2018-02-24T11:06:47.011Z,45.52
2018-02-24T11:09:48.433Z,46.14
2018-02-24T11:10:48.904Z,46.40
2018-02-24T11:11:49.373Z,46.55
2018-02-24T11:12:49.853Z,46.72
2018-02-24T11:14:50.796Z,46.96
2018-02-24T11:15:51.269Z,47.05
2018-02-24T11:16:51.741Z,47.07
2018-02-24T11:18:52.679Z,47.06
2018-02-24T11:19:53.160Z,46.96
2018-02-24T11:21:54.104Z,46.75
2018-02-24T11:22:54.578Z,46.67
2018-02-24T11:23:55.044Z,46.56
2018-02-24T11:24:55.523Z,46.46
2018-02-24T11:25:55.995Z,46.30
2018-02-24T11:26:56.470Z,46.13
2018-02-24T11:27:57.144Z,45.99
2018-02-24T11:29:57.888Z,45.64
2018-02-24T11:30:58.357Z,45.48
2018-02-24T11:32:59.316Z,45.12
2018-02-24T11:33:59.784Z,44.92
2018-02-24T11:35:00.254Z,44.71
2018-02-24T11:36:00.737Z,44.53
2018-02-24T11:37:01.209Z,44.35
2018-02-24T11:38:01.683Z,44.17
2018-02-24T11:39:02.208Z,43.96
2018-02-24T11:40:02.628Z,43.76
2018-02-24T11:41:03.110Z,43.58
2018-02-24T11:42:03.584Z,43.40
2018-02-24T11:43:04.060Z,43.23
2018-02-24T11:45:05.012Z,42.86
2018-02-24T11:46:05.486Z,42.72
2018-02-24T11:47:05.956Z,42.59
2018-02-24T11:48:06.441Z,42.48
2018-02-24T11:49:06.967Z,42.39
2018-02-24T11:51:07.868Z,42.34
2018-02-24T11:52:08.346Z,42.38
2018-02-24T11:53:08.820Z,42.43
2018-02-24T11:54:09.298Z,42.51
2018-02-24T11:55:09.776Z,42.60
2018-02-24T11:56:10.247Z,42.70
2018-02-24T11:58:11.207Z,42.94
2018-02-24T12:00:12.208Z,43.21
2018-02-24T12:01:12.635Z,43.32
2018-02-24T12:02:13.110Z,43.47
2018-02-24T12:03:13.585Z,43.62
2018-02-24T12:04:14.062Z,43.78
2018-02-24T12:05:14.536Z,43.93
2018-02-24T12:07:15.484Z,44.20
2018-02-24T12:08:15.962Z,44.35
2018-02-24T12:09:16.640Z,44.51
2018-02-24T12:10:16.962Z,44.63
2018-02-24T12:11:17.387Z,44.80
2018-02-24T12:12:17.860Z,44.97
2018-02-24T12:13:18.538Z,45.12
2018-02-24T12:14:18.810Z,45.27
2018-02-24T12:15:31.378Z,45.40
2018-02-24T12:16:19.754Z,45.53
2018-02-24T12:18:20.699Z,45.79
2018-02-24T12:19:21.179Z,45.93
2018-02-24T12:20:21.649Z,46.12
2018-02-24T12:21:22.122Z,46.27
2018-02-24T12:22:22.592Z,46.42
2018-02-24T12:23:23.069Z,46.65
2018-02-24T12:24:23.540Z,46.83
2018-02-24T12:25:24.013Z,46.94
2018-02-24T12:26:24.484Z,46.98
2018-02-24T12:27:24.957Z,46.98
2018-02-24T12:28:25.427Z,46.95
2018-02-24T12:29:25.900Z,46.85
2018-02-24T12:30:26.423Z,46.75
2018-02-24T12:31:26.851Z,46.66
2018-02-24T12:32:27.320Z,46.52
2018-02-24T12:33:27.785Z,46.35
2018-02-24T12:34:28.464Z,46.06
2018-02-24T12:35:28.783Z,45.92
2018-02-24T12:37:29.680Z,45.56
2018-02-24T12:38:30.151Z,45.43
2018-02-24T12:39:30.624Z,45.30
2018-02-24T12:40:31.091Z,45.13
2018-02-24T12:41:31.570Z,44.95
2018-02-24T12:42:32.043Z,44.73
2018-02-24T12:44:32.989Z,44.40
2018-02-24T12:45:33.462Z,44.20
2018-02-24T12:47:34.408Z,43.89
2018-02-24T12:48:34.883Z,43.75
2018-02-24T12:49:35.358Z,43.63
2018-02-24T12:50:35.882Z,43.46
2018-02-24T12:51:36.304Z,43.30
2018-02-24T12:52:36.778Z,43.21
2018-02-24T12:53:37.255Z,43.17
2018-02-24T12:54:37.734Z,43.08
2018-02-24T12:55:38.204Z,42.98
2018-02-24T12:56:38.674Z,42.90
2018-02-24T12:57:39.155Z,42.82
2018-02-24T12:58:39.832Z,42.71
2018-02-24T12:59:40.105Z,42.60
2018-02-24T13:00:40.631Z,42.52
2018-02-24T13:01:41.057Z,42.45
2018-02-24T13:02:41.572Z,42.42
2018-02-24T13:03:42.008Z,42.40
2018-02-24T13:04:42.487Z,42.41
2018-02-24T13:05:54.399Z,42.45
2018-02-24T13:06:43.438Z,42.52
2018-02-24T13:07:43.909Z,42.58
2018-02-24T13:08:44.389Z,42.66
2018-02-24T13:09:44.859Z,42.77
2018-02-24T13:10:45.343Z,42.87
2018-02-24T13:12:46.294Z,43.14
2018-02-24T13:13:46.770Z,43.29
2018-02-24T13:14:47.449Z,43.43
2018-02-24T13:16:48.191Z,43.74
2018-02-24T13:17:48.875Z,43.88
2018-02-24T13:18:49.152Z,44.03
2018-02-24T13:20:50.097Z,44.30
2018-02-24T13:21:50.569Z,44.45
2018-02-24T13:22:51.048Z,44.58
2018-02-24T13:23:51.522Z,44.68
2018-02-24T13:24:51.997Z,44.76
2018-02-24T13:25:52.470Z,44.83
2018-02-24T13:27:53.412Z,44.93
2018-02-24T13:28:53.889Z,44.97
2018-02-24T13:30:54.886Z,45.11
2018-02-24T13:31:55.309Z,45.19
2018-02-24T13:32:55.780Z,45.30
2018-02-24T13:33:56.457Z,45.43
2018-02-24T13:34:56.725Z,45.49
2018-02-24T13:35:57.197Z,45.50
2018-02-24T13:36:57.673Z,45.57
2018-02-24T13:38:58.616Z,45.59
2018-02-24T13:39:59.094Z,45.58
2018-02-24T13:43:00.499Z,45.31
2018-02-24T13:44:00.975Z,45.18
2018-02-24T13:45:01.446Z,45.01
2018-02-24T13:46:01.969Z,44.87
2018-02-24T13:47:02.394Z,44.67
2018-02-24T13:48:02.865Z,44.48
2018-02-24T13:49:03.331Z,44.29
2018-02-24T13:50:03.808Z,44.13
2018-02-24T13:51:04.332Z,44.03
2018-02-24T13:52:04.755Z,43.91
2018-02-24T13:53:05.226Z,43.70
2018-02-24T13:54:05.697Z,43.46
2018-02-24T13:55:06.172Z,43.23
2018-02-24T13:56:06.645Z,43.06
2018-02-24T13:57:07.117Z,42.87
2018-02-24T13:58:07.591Z,42.76
2018-02-24T13:59:08.064Z,42.68
2018-02-24T14:00:08.538Z,42.56
2018-02-24T14:01:09.017Z,42.38
2018-02-24T14:03:09.960Z,42.04
2018-02-24T14:04:10.433Z,41.93
2018-02-24T14:05:10.909Z,41.81
2018-02-24T14:06:11.435Z,41.67
2018-02-24T14:07:11.852Z,41.49
2018-02-24T14:08:12.335Z,41.27
2018-02-24T14:09:12.807Z,41.11
2018-02-24T14:10:13.281Z,40.98
2018-02-24T14:11:13.761Z,40.87
2018-02-24T14:12:14.232Z,40.77
2018-02-24T14:13:14.707Z,40.66
2018-02-24T14:14:15.179Z,40.54
2018-02-24T14:15:15.661Z,40.46
2018-02-24T14:16:16.185Z,40.43
2018-02-24T14:17:16.616Z,40.50
2018-02-24T14:18:17.085Z,40.57
2018-02-24T14:19:17.566Z,40.65
2018-02-24T14:20:18.038Z,40.67
2018-02-24T14:21:18.514Z,40.70
2018-02-24T14:22:18.989Z,40.82
2018-02-24T14:23:19.467Z,40.97
2018-02-24T14:24:19.946Z,41.13
2018-02-24T14:25:20.614Z,41.32
2018-02-24T14:28:21.837Z,41.78
2018-02-24T14:29:22.325Z,41.96
2018-02-24T14:30:22.792Z,42.12
2018-02-24T14:33:24.222Z,42.66
2018-02-24T14:34:24.692Z,42.85
2018-02-24T14:35:25.167Z,43.00
2018-02-24T14:36:25.642Z,43.15
2018-02-24T14:37:26.113Z,43.30
2018-02-24T14:39:27.059Z,43.65
2018-02-24T14:40:27.534Z,43.80
2018-02-24T14:41:28.009Z,43.98
2018-02-24T14:42:28.480Z,44.17
2018-02-24T14:43:28.955Z,44.42
2018-02-24T14:44:29.425Z,44.68
2018-02-24T14:45:29.897Z,44.93
2018-02-24T14:46:30.370Z,45.11
2018-02-24T14:47:42.479Z,45.20
2018-02-24T14:50:32.261Z,45.45
2018-02-24T14:51:32.730Z,45.46
2018-02-24T14:52:33.248Z,45.43
2018-02-24T14:53:33.671Z,45.30
2018-02-24T14:54:34.146Z,45.19
2018-02-24T14:55:34.616Z,45.12
2018-02-24T14:56:35.090Z,44.98
2018-02-24T14:57:35.558Z,44.82
2018-02-24T14:58:36.032Z,44.64
2018-02-24T14:59:36.498Z,44.45
2018-02-24T15:00:36.974Z,44.30
2018-02-24T15:01:37.446Z,44.15
2018-02-24T15:02:37.971Z,43.97
2018-02-24T15:03:38.392Z,43.75
2018-02-24T15:05:39.338Z,43.43
2018-02-24T15:06:39.813Z,43.28
2018-02-24T15:07:40.282Z,43.15
2018-02-24T15:08:40.752Z,43.01
2018-02-24T15:09:41.226Z,42.82
2018-02-24T15:10:41.697Z,42.65
2018-02-24T15:11:42.173Z,42.53
2018-02-24T15:12:42.646Z,42.39
2018-02-24T15:13:43.125Z,42.18
2018-02-24T15:14:43.594Z,42.01
2018-02-24T15:15:44.070Z,41.88
2018-02-24T15:16:44.535Z,41.75
2018-02-24T15:17:45.064Z,41.62
2018-02-24T15:18:45.488Z,41.49
2018-02-24T15:19:45.962Z,41.36
2018-02-24T15:20:46.434Z,41.24
2018-02-24T15:21:46.911Z,41.08
2018-02-24T15:22:47.383Z,40.96
2018-02-24T15:23:47.852Z,40.90
2018-02-24T15:24:48.332Z,40.86
2018-02-24T15:25:48.807Z,40.85
2018-02-24T15:26:49.283Z,40.76
2018-02-24T15:27:49.754Z,40.70
2018-02-24T15:28:50.233Z,40.67
2018-02-24T15:29:50.707Z,40.63
2018-02-24T15:30:51.184Z,40.54
2018-02-24T15:31:51.660Z,40.52
2018-02-24T15:32:52.132Z,40.50
2018-02-24T15:33:52.608Z,40.50
2018-02-24T15:34:53.081Z,40.49
2018-02-24T15:35:53.559Z,40.54
2018-02-24T15:37:54.510Z,40.72
2018-02-24T15:38:54.984Z,40.81
2018-02-24T15:39:55.462Z,40.96
2018-02-24T15:40:55.938Z,41.13
2018-02-24T15:41:56.412Z,41.27
2018-02-24T15:42:56.887Z,41.41
2018-02-24T15:43:57.366Z,41.60
2018-02-24T15:44:57.837Z,41.76
2018-02-24T15:45:58.309Z,41.94
2018-02-24T15:46:58.786Z,42.10
2018-02-24T15:47:59.313Z,42.29
2018-02-24T15:48:59.734Z,42.44
2018-02-24T15:51:00.681Z,42.80
2018-02-24T15:52:01.155Z,42.99
2018-02-24T15:53:01.680Z,43.17
2018-02-24T15:54:02.103Z,43.36
2018-02-24T15:55:02.574Z,43.56
2018-02-24T15:56:03.045Z,43.74
2018-02-24T15:57:03.517Z,43.94
2018-02-24T15:58:03.989Z,44.12
2018-02-24T15:59:04.463Z,44.26
2018-02-24T16:00:05.136Z,44.38
2018-02-24T16:01:05.406Z,44.52
2018-02-24T16:02:05.878Z,44.61
2018-02-24T16:03:06.399Z,44.68
2018-02-24T16:04:06.821Z,44.67
2018-02-24T16:05:07.291Z,44.68
2018-02-24T16:06:07.764Z,44.60
2018-02-24T16:07:08.234Z,44.57
2018-02-24T16:08:08.705Z,44.48
2018-02-24T16:09:09.177Z,44.36
2018-02-24T16:10:09.648Z,44.21
2018-02-24T16:11:10.118Z,44.11
2018-02-24T16:12:10.591Z,43.93
2018-02-24T16:13:11.068Z,43.72
2018-02-24T16:14:11.535Z,43.54
2018-02-24T16:15:12.004Z,43.39
2018-02-24T16:16:12.476Z,43.26
2018-02-24T16:17:12.950Z,43.13
2018-02-24T16:18:13.420Z,42.95
2018-02-24T16:19:13.892Z,42.76
2018-02-24T16:20:14.363Z,42.61
2018-02-24T16:21:14.837Z,42.47
2018-02-24T16:22:15.311Z,42.30
2018-02-24T16:23:15.832Z,42.15
2018-02-24T16:24:16.254Z,41.92
2018-02-24T16:25:16.723Z,41.78
2018-02-24T16:26:17.195Z,41.65
2018-02-24T16:27:17.717Z,41.57
2018-02-24T16:28:18.142Z,41.42
2018-02-24T16:29:18.612Z,41.34
2018-02-24T16:30:19.288Z,41.26
2018-02-24T16:31:19.558Z,41.11
2018-02-24T16:32:20.030Z,40.96
2018-02-24T16:33:20.504Z,40.94
2018-02-24T16:34:20.977Z,40.86
2018-02-24T16:35:21.451Z,40.77
2018-02-24T16:36:21.930Z,40.66
2018-02-24T16:37:22.399Z,40.58
2018-02-24T16:38:22.886Z,40.50
2018-02-24T16:41:24.297Z,40.24
2018-02-24T16:42:24.770Z,40.14
2018-02-24T16:44:25.718Z,39.94
2018-02-24T16:45:26.191Z,39.87
2018-02-24T16:46:26.664Z,39.80
2018-02-24T16:47:27.139Z,39.75
2018-02-24T16:48:27.664Z,39.69
2018-02-24T16:49:28.087Z,39.62
2018-02-24T16:50:28.562Z,39.57
2018-02-24T16:51:29.039Z,39.49
2018-02-24T16:52:29.552Z,39.45
2018-02-24T16:53:29.988Z,39.40
2018-02-24T16:54:30.457Z,39.34
2018-02-24T16:55:30.925Z,39.28
2018-02-24T16:57:31.881Z,39.16
2018-02-24T16:58:32.409Z,39.08
2018-02-24T16:59:32.832Z,39.01
2018-02-24T17:00:33.306Z,38.92
2018-02-24T17:01:33.781Z,38.84
2018-02-24T17:02:34.250Z,38.78
2018-02-24T17:03:34.732Z,38.66
2018-02-24T17:04:35.208Z,38.55
2018-02-24T17:05:35.681Z,38.51
2018-02-24T17:06:36.149Z,38.47
2018-02-24T17:07:36.628Z,38.40
2018-02-24T17:09:37.577Z,38.32
2018-02-24T17:10:38.259Z,38.29
2018-02-24T17:11:38.530Z,38.27
2018-02-24T17:13:39.473Z,38.20
2018-02-24T17:14:39.958Z,38.12
2018-02-24T17:15:40.431Z,38.10
2018-02-24T17:16:40.904Z,38.07
2018-02-24T17:17:41.379Z,38.08
2018-02-24T17:18:53.638Z,38.06
2018-02-24T17:19:42.332Z,38.01
2018-02-24T17:20:42.807Z,37.95
2018-02-24T17:21:43.278Z,37.91
2018-02-24T17:22:43.754Z,37.90
2018-02-24T17:23:44.230Z,37.98
2018-02-24T17:24:44.701Z,38.06
2018-02-24T17:25:45.180Z,38.11
2018-02-24T17:26:45.655Z,38.21
2018-02-24T17:27:46.130Z,38.32
2018-02-24T17:28:46.599Z,38.46
2018-02-24T17:29:47.081Z,38.60
2018-02-24T17:30:47.553Z,38.75
2018-02-24T17:31:48.034Z,38.87
2018-02-24T17:32:48.501Z,39.03
2018-02-24T17:33:49.026Z,39.12
2018-02-24T17:34:49.448Z,39.28
2018-02-24T17:35:49.916Z,39.48
2018-02-24T17:36:50.400Z,39.71
2018-02-24T17:37:50.866Z,39.93
2018-02-24T17:38:51.339Z,40.12
2018-02-24T17:39:51.805Z,40.29
2018-02-24T17:40:52.284Z,40.44
2018-02-24T17:41:52.756Z,40.58
2018-02-24T17:42:53.227Z,40.70
2018-02-24T17:45:54.640Z,40.81
2018-02-24T17:46:55.108Z,40.73
2018-02-24T17:47:55.585Z,40.61
2018-02-24T17:48:56.054Z,40.47
2018-02-24T17:49:56.528Z,40.38
2018-02-24T17:50:56.989Z,40.26
2018-02-24T17:51:57.467Z,40.15
2018-02-24T17:52:57.995Z,40.02
2018-02-24T17:53:58.406Z,39.82
2018-02-24T17:54:58.878Z,39.67
2018-02-24T17:55:59.349Z,39.52
2018-02-24T17:56:59.820Z,39.42
2018-02-24T17:58:00.283Z,39.25
2018-02-24T17:59:00.760Z,39.06
2018-02-24T18:01:01.703Z,38.80
2018-02-24T18:02:02.173Z,38.70
2018-02-24T18:03:02.642Z,38.55
2018-02-24T18:04:03.114Z,38.43
2018-02-24T18:06:04.063Z,38.18
2018-02-24T18:07:04.526Z,38.14
2018-02-24T18:08:05.001Z,38.07
2018-02-24T18:09:05.464Z,37.99
2018-02-24T18:10:05.939Z,38.02
2018-02-24T18:11:06.465Z,37.98
2018-02-24T18:12:06.918Z,37.94
2018-02-24T18:13:07.354Z,37.89
2018-02-24T18:14:07.828Z,37.70
2018-02-24T18:15:08.296Z,37.55
2018-02-24T18:16:08.768Z,37.50
2018-02-24T18:17:09.239Z,37.51
2018-02-24T18:18:09.726Z,37.53
2018-02-24T18:19:10.182Z,37.48
2018-02-24T18:20:10.650Z,37.47
2018-02-24T18:21:11.127Z,37.42
2018-02-24T18:22:11.598Z,37.43
2018-02-24T18:23:12.070Z,37.40
2018-02-24T18:24:12.543Z,37.34
2018-02-24T18:25:13.215Z,37.23
2018-02-24T18:27:13.954Z,37.19
2018-02-24T18:28:14.633Z,37.15
2018-02-24T18:29:14.903Z,37.10
2018-02-24T18:30:15.378Z,37.13
2018-02-24T18:31:15.894Z,37.12
2018-02-24T18:32:16.320Z,37.05
2018-02-24T18:33:16.792Z,36.98
2018-02-24T18:34:17.264Z,36.94
2018-02-24T18:35:17.737Z,36.94
2018-02-24T18:36:18.259Z,36.94
2018-02-24T18:37:18.681Z,36.93
2018-02-24T18:38:19.149Z,36.89
2018-02-24T18:39:19.626Z,36.84
2018-02-24T18:40:20.100Z,36.82
2018-02-24T18:41:20.621Z,36.85
2018-02-24T18:42:21.038Z,36.85
2018-02-24T18:44:21.991Z,36.79
2018-02-24T18:46:22.935Z,36.78
2018-02-24T18:47:23.411Z,36.77
2018-02-24T18:48:23.881Z,36.78
2018-02-24T18:49:24.348Z,36.77
2018-02-24T18:50:24.826Z,36.77
2018-02-24T18:51:25.300Z,36.79
2018-02-24T18:52:25.773Z,36.76
2018-02-24T18:53:26.240Z,36.78
2018-02-24T18:54:26.721Z,36.77
2018-02-24T18:55:27.189Z,36.75
2018-02-24T18:56:27.665Z,36.71
2018-02-24T18:57:28.138Z,36.69
2018-02-24T18:58:28.611Z,36.71
2018-02-24T18:59:29.083Z,36.69
2018-02-24T19:00:29.551Z,36.67
2018-02-24T19:01:30.030Z,36.66
2018-02-24T19:02:30.502Z,36.64
2018-02-24T19:03:30.976Z,36.65
2018-02-24T19:04:31.448Z,36.66
2018-02-24T19:05:31.921Z,36.65
2018-02-24T19:06:32.393Z,36.63
2018-02-24T19:07:32.867Z,36.65
2018-02-24T19:08:33.339Z,36.62
2018-02-24T19:09:33.814Z,36.58
2018-02-24T19:10:34.287Z,36.62
2018-02-24T19:11:34.805Z,36.59
2018-02-24T19:12:35.232Z,36.60
2018-02-24T19:13:35.705Z,36.63
2018-02-24T19:14:36.177Z,36.65
2018-02-24T19:15:36.685Z,36.62
2018-02-24T19:16:48.755Z,36.61
2018-02-24T19:17:37.596Z,36.58
2018-02-24T19:18:38.066Z,36.59
2018-02-24T19:20:39.015Z,36.61
2018-02-24T19:21:39.490Z,36.57
2018-02-24T19:22:39.955Z,36.54
2018-02-24T19:24:40.908Z,36.52
2018-02-24T19:25:41.382Z,36.50
2018-02-24T19:26:41.853Z,36.46
2018-02-24T19:27:42.328Z,36.44
2018-02-24T19:28:42.803Z,36.44
2018-02-24T19:29:43.268Z,36.45
2018-02-24T19:30:43.767Z,36.42
2018-02-24T19:31:44.220Z,36.40
2018-02-24T19:32:44.692Z,36.40
2018-02-24T19:33:45.161Z,36.38
2018-02-24T19:34:45.637Z,36.34
2018-02-24T19:35:46.111Z,36.31
2018-02-24T19:36:46.637Z,36.29
2018-02-24T19:37:47.060Z,36.29
2018-02-24T19:38:47.529Z,36.24
2018-02-24T19:39:48.004Z,36.24
2018-02-24T19:40:48.471Z,36.21
2018-02-24T19:41:49.001Z,36.13
2018-02-24T19:42:49.422Z,36.13
2018-02-24T19:43:49.895Z,36.13
2018-02-24T19:44:50.363Z,36.08
2018-02-24T19:45:50.840Z,36.08
2018-02-24T19:46:51.313Z,36.02
2018-02-24T19:47:51.786Z,36.03
2018-02-24T19:48:52.260Z,36.06
2018-02-24T19:50:53.205Z,36.02
2018-02-24T19:51:53.672Z,35.99
2018-02-24T19:52:54.151Z,35.96
2018-02-24T19:53:54.627Z,35.92
2018-02-24T19:54:55.096Z,35.92
2018-02-24T19:55:55.567Z,35.93
2018-02-24T19:56:56.044Z,35.89
2018-02-24T19:57:56.515Z,35.89
2018-02-24T19:58:56.986Z,35.86
2018-02-24T20:00:57.932Z,35.82
2018-02-24T20:01:58.406Z,35.84
2018-02-24T20:02:58.873Z,35.83
2018-02-24T20:03:59.349Z,35.81
2018-02-24T20:04:59.829Z,35.80
2018-02-24T20:06:00.297Z,35.83
2018-02-24T20:07:00.769Z,35.85
2018-02-24T20:08:01.241Z,35.90
2018-02-24T20:09:01.715Z,35.92
2018-02-24T20:10:02.194Z,35.94
2018-02-24T20:11:02.659Z,35.98
2018-02-24T20:12:03.182Z,36.00
2018-02-24T20:13:03.605Z,36.04
2018-02-24T20:14:04.077Z,36.07
2018-02-24T20:15:04.549Z,36.01
2018-02-24T20:17:05.546Z,35.98
2018-02-24T20:18:05.968Z,35.96
2018-02-24T20:19:06.512Z,35.98
2018-02-24T20:20:06.915Z,36.00
2018-02-24T20:21:07.385Z,36.02
2018-02-24T20:22:07.911Z,36.02
2018-02-24T20:24:08.802Z,36.04
2018-02-24T20:25:09.270Z,36.02
2018-02-24T20:26:09.749Z,36.04
2018-02-24T20:27:10.271Z,36.09
2018-02-24T20:28:10.693Z,36.13
2018-02-24T20:29:11.165Z,36.14
2018-02-24T20:30:11.638Z,36.18
2018-02-24T20:31:12.109Z,36.22
2018-02-24T20:32:12.625Z,36.29
2018-02-24T20:33:13.054Z,36.31
2018-02-24T20:34:13.531Z,36.34
2018-02-24T20:35:13.998Z,36.37
2018-02-24T20:36:14.466Z,36.37
2018-02-24T20:37:14.943Z,36.34
2018-02-24T20:38:15.415Z,36.33
2018-02-24T20:39:15.888Z,36.31
2018-02-24T20:40:16.361Z,36.29
2018-02-24T20:41:16.834Z,36.28
2018-02-24T20:43:17.822Z,36.22
2018-02-24T20:44:18.249Z,36.21
2018-02-24T20:45:18.722Z,36.20
2018-02-24T20:46:19.198Z,36.18
2018-02-24T20:47:19.660Z,36.14
2018-02-24T20:48:20.137Z,36.11
2018-02-24T20:49:20.611Z,36.10
2018-02-24T20:50:21.083Z,36.12
2018-02-24T20:51:21.562Z,36.09
2018-02-24T20:52:22.032Z,36.08
2018-02-24T20:53:22.500Z,36.08
2018-02-24T20:54:22.967Z,36.11
2018-02-24T20:55:23.447Z,36.13
2018-02-24T20:58:24.907Z,36.16
2018-02-24T20:59:25.333Z,36.23
2018-02-24T21:00:25.805Z,36.25
2018-02-24T21:01:26.278Z,36.28
2018-02-24T21:02:26.750Z,36.28
2018-02-24T21:04:27.694Z,36.29
2018-02-24T21:05:28.160Z,36.36
2018-02-24T21:07:29.109Z,36.46
2018-02-24T21:08:29.582Z,36.49
2018-02-24T21:09:30.053Z,36.57
2018-02-24T21:10:30.527Z,36.65
2018-02-24T21:11:30.998Z,36.71
2018-02-24T21:12:31.475Z,36.80
2018-02-24T21:13:31.942Z,36.96
2018-02-24T21:14:32.417Z,37.15
2018-02-24T21:15:32.887Z,37.25
2018-02-24T21:16:33.353Z,37.30
2018-02-24T21:17:34.032Z,37.42
2018-02-24T21:19:34.978Z,37.56
2018-02-24T21:20:35.247Z,37.63
2018-02-24T21:21:35.717Z,37.72
2018-02-24T21:23:48.907Z,37.97
2018-02-24T21:24:37.132Z,38.06
2018-02-24T21:25:37.607Z,38.15
2018-02-24T21:26:38.079Z,38.24
2018-02-24T21:27:38.546Z,38.35
2018-02-24T21:28:39.022Z,38.42
2018-02-24T21:30:39.968Z,38.54
2018-02-24T21:31:40.438Z,38.61
2018-02-24T21:32:40.911Z,38.65
2018-02-24T21:34:41.854Z,38.71
2018-02-24T21:35:42.324Z,38.75
2018-02-24T21:36:42.797Z,38.81
2018-02-24T21:37:43.270Z,38.82
2018-02-24T21:38:43.739Z,38.85
2018-02-24T21:39:44.214Z,38.82
2018-02-24T21:40:44.685Z,38.81
2018-02-24T21:41:45.158Z,38.83
2018-02-24T21:42:45.630Z,38.84
2018-02-24T21:43:46.154Z,38.84
2018-02-24T21:44:46.575Z,38.91
2018-02-24T21:45:47.039Z,38.94
2018-02-24T21:46:47.518Z,38.98
2018-02-24T21:47:47.988Z,39.02
2018-02-24T21:48:48.462Z,39.06
2018-02-24T21:49:48.927Z,39.10
2018-02-24T21:50:49.404Z,39.18
2018-02-24T21:51:49.877Z,39.23
2018-02-24T21:52:50.349Z,39.34
2018-02-24T21:53:50.930Z,39.39
2018-02-24T21:55:51.763Z,39.51
2018-02-24T21:56:52.229Z,39.59
2018-02-24T21:57:52.709Z,39.69
2018-02-24T21:58:53.182Z,39.78
2018-02-24T21:59:53.653Z,39.84
2018-02-24T22:00:54.119Z,39.93
2018-02-24T22:01:54.596Z,39.97
2018-02-24T22:02:55.069Z,40.03
2018-02-24T22:04:06.975Z,40.08
2018-02-24T22:04:56.012Z,40.10
2018-02-24T22:05:56.486Z,40.11
2018-02-24T22:06:56.956Z,40.12
2018-02-24T22:07:57.420Z,40.11
2018-02-24T22:08:57.898Z,40.09
2018-02-24T22:09:58.371Z,40.11
2018-02-24T22:10:58.844Z,40.14
2018-02-24T22:11:59.310Z,40.18
2018-02-24T22:14:00.312Z,40.25
2018-02-24T22:15:00.732Z,40.26
2018-02-24T22:16:01.203Z,40.29
2018-02-24T22:18:02.146Z,40.35
2018-02-24T22:19:02.663Z,40.35
2018-02-24T22:21:03.563Z,40.38
2018-02-24T22:22:04.034Z,40.39
2018-02-24T22:23:04.506Z,40.43
2018-02-24T22:24:04.977Z,40.46
2018-02-24T22:25:05.449Z,40.50
2018-02-24T22:26:05.965Z,40.54
2018-02-24T22:27:06.394Z,40.55
2018-02-24T22:28:06.865Z,40.63
2018-02-24T22:29:07.337Z,40.66
2018-02-24T22:30:07.805Z,40.66
2018-02-24T22:31:08.281Z,40.67
2018-02-24T22:34:09.697Z,40.76
2018-02-24T22:35:10.174Z,40.82
2018-02-24T22:36:10.638Z,40.87
2018-02-24T22:37:11.112Z,40.90